Latest Coastal Weather Observations for Geraldton Airport

IDW60701

Issued at 12:03 am WST Thursday 1 September 2016 (issued every 10 minutes, with the page automatically refreshed every 10 minutes)

About coastal observations | Map of coastal stations | Coastal observations for WA | Marine services | Other Formats
Station Details ID: 008315 Name: GERALDTON AIRPORT Lat: -28.80 Lon: 114.70 Height: 29.7 m
Data from the previous 72 hours. | See also: Recent months at Geraldton Airport
Date/Time
WST
Temp
°C
Wind Pressure Rain since
9am
mm
Weather Cloud Vis
km
Sea
Height
m
Swell
Dir  Spd
kts
Gust
kts
hPa Trend Height
m
Period
s
Dir
01/12:00am 11.5 SE 6 9 1022.4 - 5.6 - Partly cloudy 10 - - - -
 
Date/Time
WST
Temp
°C
Wind Pressure Rain since
9am
mm
Weather Cloud Vis
km
Sea
Height
m
Swell
Dir  Spd
kts
Gust
kts
hPa Trend Height
m
Period
s
Dir
31/11:30pm 11.9 ESE 4 7 1022.1 - 5.6 - Partly cloudy 10 - - - -
31/11:00pm 11.6 SSE 5 7 1022.2 - 5.4 - Partly cloudy 10 - - - -
31/10:30pm 10.6 ESE 6 6 1022.0 - 5.4 - Partly cloudy 10 - - - -
31/10:00pm 11.6 SE 5 8 1022.0 - 5.4 - Partly cloudy 10 - - - -
31/09:30pm 12.4 SE 6 8 1021.7 - 5.4 - Partly cloudy 10 - - - -
31/09:00pm 13.4 SSE 10 14 1021.7 - 5.4 - Mostly clear 10 - - - -
31/08:30pm 12.9 S 8 10 1020.8 - 5.4 - - 10 - - - -
31/08:00pm 13.8 S 9 13 1020.3 - 5.4 - - 10 - - - -
31/07:30pm 14.1 S 10 13 1019.8 - 5.4 - - 10 - - - -
31/07:00pm 14.2 S 9 14 1019.2 - 5.4 - Partly cloudy 10 - - - -
31/06:30pm 14.6 S 11 15 1018.6 - 5.4 - - 10 - - - -
31/06:00pm 14.8 S 11 16 1018.2 - 5.4 - - 10 - - - -
31/05:30pm 15.7 S 14 19 1017.6 - 5.4 - Partly cloudy 10 - - - -
31/05:00pm 16.4 S 13 19 1017.1 - 5.4 - - 10 - - - -
31/04:30pm 16.5 S 16 21 1016.6 - 5.4 - - 10 - - - -
31/04:00pm 16.6 S 18 23 1016.2 - 5.4 - Partly cloudy 10 - - - -
31/03:30pm 17.3 S 17 23 1016.0 - 5.4 - Partly cloudy 10 - - - -
31/03:00pm 17.0 SSW 17 24 1015.8 - 5.4 - Mostly clear 10 - - - -
31/02:30pm 17.2 SSW 17 23 1015.6 - 5.2 - Mostly clear 10 - - - -
31/02:02pm 16.9 SSW 19 29 1015.4 - 5.2 Showers Mostly clear 10 - - - -
31/02:00pm 17.6 SSW 17 25 1015.5 - 5.2 Showers Mostly clear 10 - - - -
31/01:30pm 17.3 SW 18 27 1015.6 - 5.2 - Mostly clear 10 - - - -
31/01:00pm 16.7 SW 13 20 1015.6 - 5.2 Showers Mostly clear 10 - - - -
31/12:30pm 17.3 SSW 11 16 1015.5 - 5.2 - Mostly clear 10 - - - -
31/12:00pm 16.3 SSW 11 16 1015.6 - 5.2 - Cloudy 10 - - - -
31/11:30am 16.4 SSW 16 22 1015.5 - 5.2 Showers Mostly clear 10 - - - -
31/11:00am 17.4 SW 15 20 1015.4 - 5.2 - Mostly clear 10 - - - -
31/10:30am 16.2 SW 14 19 1015.0 - 5.2 - Mostly clear 10 - - - -
31/10:00am 14.5 NNW 5 7 1014.9 - 5.2 Showers Mostly clear 10 - - - -
31/09:49am 13.6 NNW 5 8 1015.1 - 4.8 Showers Mostly clear 6 - - - -
31/09:30am 14.4 W 14 18 1015.4 - 0.2 Showers Mostly clear 3 - - - -
31/09:20am 15.9 WSW 13 18 1014.8 - 0.0 Showers Mostly clear 6 - - - -
31/09:00am 16.0 WSW 13 17 1014.5 - 1.6 - Mostly cloudy 10 - - - -
31/08:30am 14.7 N 7 9 1014.1 - 1.6 - Mostly clear 10 - - - -
31/08:00am 12.7 NNE 8 10 1014.1 - 1.6 - Mostly clear 10 - - - -
31/07:30am 11.8 N 9 11 1014.0 - 1.6 Showers Mostly clear 10 - - - -
31/07:00am 11.8 N 7 10 1014.0 - 1.4 Showers Mostly clear 6 - - - -
31/06:52am 11.8 N 8 10 1013.9 - 1.4 - Partly cloudy 6 - - - -
31/06:30am 11.4 NNE 8 9 1013.6 - 1.2 - Partly cloudy 10 - - - -
31/06:00am 10.9 NNE 5 6 1013.2 - 1.2 - Partly cloudy 10 - - - -
31/05:30am 11.6 NNE 5 7 1012.5 - 1.2 - Cloudy 10 - - - -
31/05:00am 11.5 NNE 8 10 1012.3 - 1.2 - Partly cloudy 10 - - - -
31/04:30am 11.3 NNE 8 9 1012.7 - 1.2 - Partly cloudy 10 - - - -
31/04:00am 11.2 NNE 9 11 1012.9 - 1.0 - Partly cloudy 10 - - - -
31/03:52am 11.3 NNE 8 10 1012.8 - 1.0 - Partly cloudy 10 - - - -
31/03:36am 11.6 NE 3 4 1013.1 - 1.0 - Partly cloudy 6 - - - -
31/03:30am 11.5 NE 4 6 1013.1 - 0.8 - Partly cloudy 10 - - - -
31/03:14am 11.2 N 4 7 1013.2 - 0.6 - Partly cloudy 6 - - - -
31/03:00am 11.1 NNE 5 7 1013.3 - 0.6 - Cloudy 10 - - - -
31/02:43am 11.0 NE 5 7 1013.4 - 0.6 - Partly cloudy 10 - - - -
31/02:37am 11.1 ESE 4 5 1013.3 - 0.6 - Partly cloudy 10 - - - -
31/02:30am 10.8 NNE 4 6 1013.4 - 0.6 - Partly cloudy 3 - - - -
31/02:22am 10.7 NNE 6 8 1013.4 - 0.4 - Partly cloudy 5 - - - -
31/02:06am 11.1 NNE 7 9 1013.4 - 0.0 - Partly cloudy 10 - - - -
31/02:00am 11.2 N 7 9 1013.4 - 0.0 - Partly cloudy 10 - - - -
31/01:30am 10.9 N 3 8 1013.9 - 0.0 - Partly cloudy 10 - - - -
31/01:00am 9.8 NNE 7 9 1013.8 - 0.0 - Partly cloudy 10 - - - -
31/12:30am 9.7 NNE 10 12 1014.0 - 0.0 - - 10 - - - -
31/12:00am 9.9 NNE 11 13 1014.2 - 0.0 - - 10 - - - -
 
Date/Time
WST
Temp
°C
Wind Pressure Rain since
9am
mm
Weather Cloud Vis
km
Sea
Height
m
Swell
Dir  Spd
kts
Gust
kts
hPa Trend Height
m
Period
s
Dir
30/11:30pm 10.2 NNE 11 15 1014.5 - 0.0 - - 10 - - - -
30/11:00pm 10.0 NNE 9 11 1014.7 - 0.0 - - 10 - - - -
30/10:30pm 10.4 NNE 8 9 1015.0 - 0.0 - - 10 - - - -
30/10:00pm 10.5 NNE 8 9 1015.1 - 0.0 - Partly cloudy 10 - - - -
30/09:30pm 10.9 N 6 7 1015.4 - 0.0 - Partly cloudy 10 - - - -
30/09:00pm 10.5 NNE 7 7 1015.2 - 0.0 - - 10 - - - -
30/08:30pm 10.6 NE 5 6 1015.4 - 0.0 - - 10 - - - -
30/08:00pm 10.8 ENE 5 7 1015.4 - 0.0 - Partly cloudy 10 - - - -
30/07:30pm 12.5 CALM 0 0 1015.2 - 0.0 - Partly cloudy 10 - - - -
30/07:00pm 13.1 SE 1 3 1015.2 - 0.0 - Partly cloudy 10 - - - -
30/06:30pm 15.1 SSW 4 5 1015.0 - 0.0 - Partly cloudy 10 - - - -
30/06:00pm 15.5 SW 6 7 1015.0 - 0.0 - - 10 - - - -
30/05:30pm 17.4 W 8 9 1014.8 - 0.0 - - 10 - - - -
30/05:00pm 18.4 W 9 11 1014.5 - 0.0 - - 10 - - - -
30/04:30pm 19.1 W 9 11 1014.3 - 0.0 - - 10 - - - -
30/04:00pm 20.0 W 7 9 1014.2 - 0.0 - - 10 - - - -
30/03:30pm 19.8 WNW 5 9 1014.3 - 0.0 - - 10 - - - -
30/03:00pm 20.3 NW 7 9 1014.6 - 0.0 - Mostly clear 10 - - - -
30/02:30pm 20.4 S 7 11 1014.7 - 0.0 - Partly cloudy 10 - - - -
30/02:00pm 19.8 SW 4 6 1015.0 - 0.0 - Partly cloudy 10 - - - -
30/01:30pm 19.5 W 5 9 1015.2 - 0.0 - Partly cloudy 10 - - - -
30/01:00pm 19.3 NE 6 11 1015.5 - 0.0 - Partly cloudy 10 - - - -
30/12:30pm 19.7 NNE 6 11 1016.0 - 0.0 - Mostly clear 10 - - - -
30/12:00pm 19.1 N 5 9 1016.5 - 0.0 - Mostly clear 10 - - - -
30/11:30am 18.4 NNE 7 11 1017.1 - 0.0 - Partly cloudy 10 - - - -
30/11:00am 18.6 NNE 8 13 1017.6 - 0.0 - Mostly clear 10 - - - -
30/10:30am 17.7 NNE 10 12 1017.7 - 0.0 - Mostly clear 10 - - - -
30/10:00am 16.7 NNE 10 13 1017.9 - 0.0 - Mostly clear 10 - - - -
30/09:30am 15.1 NNE 11 15 1018.1 - 0.0 - Mostly clear 10 - - - -
30/09:00am 13.6 NNE 12 15 1018.3 - 0.2 - Mostly clear 10 - - - -
30/08:30am 11.7 NNE 9 13 1018.2 - 0.2 - Mostly clear 10 - - - -
30/08:00am 9.7 NNE 11 13 1018.2 - 0.2 - Mostly clear 10 - - - -
30/07:30am 9.3 NNE 9 11 1018.0 - 0.2 - Partly cloudy 10 - - - -
30/07:00am 9.0 NNE 8 11 1017.9 - 0.2 - Partly cloudy 10 - - - -
30/06:30am 9.0 NE 10 13 1017.6 - 0.2 - Cloudy 10 - - - -
30/06:00am 8.8 NE 10 12 1017.4 - 0.2 - Mostly cloudy 10 - - - -
30/05:30am 8.7 NNE 10 11 1017.2 - 0.2 - Cloudy 10 - - - -
30/05:00am 8.7 NNE 8 10 1017.1 - 0.2 - Cloudy 10 - - - -
30/04:30am 8.5 NE 7 9 1016.9 - 0.2 - Partly cloudy 10 - - - -
30/04:00am 8.5 NNE 8 10 1016.6 - 0.2 - Cloudy 10 - - - -
30/03:30am 8.3 NE 7 8 1016.7 - 0.2 - Partly cloudy 10 - - - -
30/03:00am 8.5 NNE 7 9 1016.9 - 0.2 - Mostly cloudy 10 - - - -
30/02:30am 8.2 NNE 8 9 1017.1 - 0.2 - Partly cloudy 10 - - - -
30/02:00am 7.9 NE 7 7 1017.1 - 0.2 - Partly cloudy 10 - - - -
30/01:30am 8.1 NE 6 7 1017.3 - 0.2 - Partly cloudy 10 - - - -
30/01:00am 8.5 NNE 7 7 1017.4 - 0.2 - - 10 - - - -
30/12:30am 8.4 NNE 6 7 1017.4 - 0.2 - - 10 - - - -
30/12:00am 8.4 NE 6 6 1017.7 - 0.2 - - 10 - - - -
 
Date/Time
WST
Temp
°C
Wind Pressure Rain since
9am
mm
Weather Cloud Vis
km
Sea
Height
m
Swell
Dir  Spd
kts
Gust
kts
hPa Trend Height
m
Period
s
Dir
29/11:30pm 8.2 NE 4 5 1017.7 - 0.2 - - 10 - - - -
29/11:00pm 9.7 E 3 4 1017.9 - 0.2 - - 10 - - - -
29/10:30pm 9.9 E 3 4 1017.8 - 0.2 - - 10 - - - -
29/10:00pm 9.4 ENE 4 5 1017.9 - 0.2 - - 10 - - - -
29/09:30pm 10.1 ESE 1 3 1017.7 - 0.2 - - 10 - - - -
29/09:00pm 11.1 E 5 6 1017.5 - 0.2 - - 10 - - - -
29/08:30pm 10.7 E 4 5 1017.5 - 0.2 - - 10 - - - -
29/08:00pm 10.8 E 2 3 1017.3 - 0.2 - - 10 - - - -
29/07:30pm 11.5 SE 3 5 1016.9 - 0.2 - - 10 - - - -
29/07:00pm 12.6 SE 5 6 1016.6 - 0.2 - - 10 - - - -
29/06:30pm 12.8 SSE 4 5 1016.3 - 0.2 - - 10 - - - -
29/06:00pm 14.4 S 6 8 1016.2 - 0.2 - - 10 - - - -
29/05:30pm 16.0 SSW 8 11 1016.0 - 0.2 - - 10 - - - -
29/05:00pm 16.7 SSW 10 13 1015.9 - 0.2 - - 10 - - - -
29/04:30pm 17.5 SSW 9 12 1015.8 - 0.2 - - 10 - - - -
29/04:00pm 17.8 S 9 13 1015.3 - 0.2 - - 10 - - - -
29/03:30pm 17.6 S 8 11 1015.2 - 0.2 - - 10 - - - -
29/03:00pm 17.5 S 10 16 1015.5 - 0.2 - Mostly clear 10 - - - -
29/02:30pm 17.5 S 11 15 1015.6 - 0.2 - Mostly clear 10 - - - -
29/02:00pm 18.0 S 10 14 1015.8 - 0.2 - Mostly clear 10 - - - -
29/01:30pm 18.2 S 10 14 1015.9 - 0.2 - Mostly clear 10 - - - -
29/01:00pm 18.2 SSW 9 13 1015.9 - 0.2 - Partly cloudy 10 - - - -
29/12:30pm 17.5 SE 6 10 1016.0 - 0.2 - Partly cloudy 10 - - - -
29/12:00pm 17.4 SSE 6 9 1016.2 - 0.2 - Partly cloudy 10 - - - -
29/11:30am 16.9 SSE 7 11 1016.6 - 0.0 - Partly cloudy 10 - - - -
29/11:00am 16.9 SE 7 12 1017.0 - 0.0 - Partly cloudy 10 - - - -
29/10:30am 15.6 SSE 6 9 1017.3 - 0.0 - Partly cloudy 10 - - - -
29/10:00am 15.9 SSE 8 11 1017.2 - 0.0 - Mostly clear 10 - - - -
29/09:30am 14.7 S 6 7 1017.0 - 0.0 - Mostly clear 10 - - - -
29/09:00am 13.5 SE 1 4 1017.0 - 2.8 - Cloudy 7 - - - -
29/08:30am 13.1 NE 3 4 1016.6 - 2.8 - Mostly clear 10 - - - -
29/08:00am 12.7 NNE 5 6 1016.5 - 2.8 - Mostly clear 10 - - - -
29/07:30am 11.4 NNE 4 5 1016.2 - 2.8 - Mostly clear 10 - - - -
29/07:00am 11.7 E 4 5 1016.0 - 2.8 Fog Mostly clear 10 - - - -
29/06:49am 11.8 E 5 6 1015.8 - 2.8 - Partly cloudy 10 - - - -
29/06:30am 11.8 E 5 7 1015.7 - 2.8 - Partly cloudy 6 - - - -
29/06:24am 11.8 E 5 8 1015.7 - 2.8 - Partly cloudy 10 - - - -
29/06:00am 11.4 ENE 3 5 1015.4 - 2.6 - Cloudy 3 - - - -
29/05:52am 11.3 NE 4 6 1015.3 - 2.6 - Partly cloudy 4 - - - -
29/05:30am 10.9 NE 5 7 1015.3 - 2.2 - Partly cloudy 5 - - - -
29/05:23am 10.8 NE 5 5 1015.3 - 2.2 - Partly cloudy 6 - - - -
29/05:17am 10.8 NE 5 6 1015.3 - 2.0 - Partly cloudy 10 - - - -
29/05:00am 10.9 ENE 4 5 1015.2 - 2.0 - Partly cloudy 5 - - - -
29/04:58am 10.8 ENE 4 5 1015.2 - 2.0 - Partly cloudy 6 - - - -
29/04:46am 10.7 NNE 5 6 1015.0 - 2.0 - Partly cloudy 10 - - - -
29/04:30am 10.7 NNE 5 6 1014.9 - 2.0 - Partly cloudy 8 - - - -
29/04:22am 10.7 NNE 3 5 1014.7 - 2.0 - Partly cloudy 10 - - - -
29/04:10am 10.5 NNE 4 5 1014.8 - 2.0 - Partly cloudy 4 - - - -
29/04:00am 10.5 NNE 4 4 1014.8 - 1.8 - Partly cloudy 5 - - - -
29/03:30am 10.8 ESE 2 5 1014.6 - 1.6 - Partly cloudy 10 - - - -
29/03:00am 10.8 NE 4 6 1014.4 - 1.6 - Cloudy 10 - - - -
29/02:30am 10.3 ENE 5 7 1014.8 - 1.6 - Partly cloudy 10 - - - -
29/02:00am 9.7 NE 7 8 1015.0 - 1.6 - Partly cloudy 10 - - - -
29/01:30am 9.9 NNE 6 7 1015.1 - 1.6 - Partly cloudy 10 - - - -
29/01:00am 10.2 NE 6 7 1015.1 - 1.6 - Partly cloudy 10 - - - -
29/12:30am 10.2 NNE 5 7 1015.3 - 1.6 - Partly cloudy 10 - - - -

Other Formats:

Comma delimited format used in spreadsheet applications
http://www.bom.gov.au/fwo/IDW60701/IDW60701.94403.axf

JavaScript Object Notation format (JSON) in row-major order
http://www.bom.gov.au/fwo/IDW60701/IDW60701.94403.json